Time;durP1;ratioP1;P1;durP2;ratioP2;P2;SDS_P1;SDS_P2;PMS_P1;PMS_P2;Temp;Humidity;BMP_temperature;BMP_pressure;BME280_temperature;BME280_humidity;BME280_pressure;Samples;Min_cycle;Max_cycle;Signal;HPM_P1;HPM_P2
2023/06/02 00:02:05;;;;;;;8.60;4.60;;;;;;;18.56;60.21;99363.56;4288156;33;20471;-82
2023/06/02 00:04:31;;;;;;;9.85;5.47;;;;;;;18.49;60.20;99372.84;4287963;33;20096;-82
2023/06/02 00:07:02;;;;;;;7.95;4.65;;;;;;;18.36;60.19;99372.84;4286590;33;31075;-82
2023/06/02 00:09:28;;;;;;;9.85;5.40;;;;;;;18.47;60.20;99369.47;4289171;33;20168;-84
2023/06/02 00:11:53;;;;;;;11.50;5.43;;;;;;;18.33;60.19;99358.09;4287590;33;20640;-83
2023/06/02 00:14:19;;;;;;;10.10;5.20;;;;;;;18.23;60.19;99364.12;4286815;33;35338;-83
2023/06/02 00:16:45;;;;;;;10.95;5.03;;;;;;;18.20;60.19;99359.06;4275915;33;20101;-84
2023/06/02 00:19:11;;;;;;;12.70;6.18;;;;;;;18.39;60.20;99360.31;4275759;33;20108;-84
2023/06/02 00:21:37;;;;;;;7.85;5.05;;;;;;;18.39;60.20;99362.09;4287610;33;20108;-83
2023/06/02 00:24:03;;;;;;;10.23;4.90;;;;;;;18.34;60.19;99358.94;4263796;33;20133;-85
2023/06/02 00:26:28;;;;;;;9.45;4.93;;;;;;;18.46;60.20;99358.09;4275834;33;20085;-82
2023/06/02 00:28:55;;;;;;;9.15;4.78;;;;;;;18.40;60.19;99361.97;4274994;33;30274;-84
2023/06/02 00:31:21;;;;;;;6.70;4.00;;;;;;;18.09;60.18;99363.28;4275999;33;20104;-84
2023/06/02 00:33:48;;;;;;;7.72;4.80;;;;;;;18.09;60.18;99357.19;4287661;33;20188;-84
2023/06/02 00:36:13;;;;;;;9.70;4.70;;;;;;;18.21;60.18;99366.00;4275928;33;20256;-83
2023/06/02 00:38:39;;;;;;;7.22;4.25;;;;;;;18.28;60.18;99365.50;4288292;33;20132;-83
2023/06/02 00:41:04;;;;;;;8.98;4.82;;;;;;;18.23;60.19;99359.72;4287213;33;20152;-84
2023/06/02 00:43:30;;;;;;;9.60;5.20;;;;;;;18.22;60.18;99362.47;4287447;33;20106;-84
2023/06/02 00:45:55;;;;;;;10.38;5.03;;;;;;;18.16;60.18;99360.22;4288675;33;20129;-83
2023/06/02 00:48:21;;;;;;;7.68;4.85;;;;;;;18.22;60.18;99362.47;4287351;33;20482;-82
2023/06/02 00:50:46;;;;;;;7.68;5.37;;;;;;;17.99;60.17;99358.78;4285007;33;85854;-82
2023/06/02 00:53:11;;;;;;;9.80;5.10;;;;;;;18.10;60.18;99358.88;4275223;33;20149;-82
2023/06/02 00:55:37;;;;;;;6.32;4.32;;;;;;;18.06;60.18;99362.66;4287266;33;20100;-83
2023/06/02 00:58:03;;;;;;;9.85;5.12;;;;;;;18.27;60.19;99357.69;4287271;33;20463;-83
2023/06/02 01:00:33;;;;;;;12.40;5.60;;;;;;;18.03;60.17;99361.09;4275611;33;20100;-83
2023/06/02 01:02:59;;;;;;;8.23;4.75;;;;;;;18.12;60.18;99359.59;4263793;33;20151;-83
2023/06/02 01:05:25;;;;;;;7.60;5.07;;;;;;;18.12;60.18;99358.75;4287444;33;20139;-83
2023/06/02 01:07:55;;;;;;;8.85;5.22;;;;;;;18.26;60.19;99356.03;4287217;33;20112;-83
2023/06/02 01:10:20;;;;;;;5.65;4.15;;;;;;;17.91;60.16;99359.28;4275327;33;20105;-83
2023/06/02 01:12:46;;;;;;;8.45;5.12;;;;;;;17.98;60.17;99350.03;4275086;33;20159;-83
2023/06/02 01:15:11;;;;;;;8.88;5.20;;;;;;;18.09;60.18;99349.28;4274896;33;21279;-83
2023/06/02 01:17:37;;;;;;;11.10;5.30;;;;;;;18.28;60.18;99356.75;4275045;33;20117;-83
2023/06/02 01:20:04;;;;;;;7.43;4.97;;;;;;;18.23;60.19;99353.59;4287166;33;20168;-83
2023/06/02 01:22:31;;;;;;;8.68;4.72;;;;;;;18.09;60.18;99350.12;4286777;33;20104;-83
2023/06/02 01:24:59;;;;;;;9.13;5.50;;;;;;;17.99;60.17;99348.25;4275040;33;20100;-83
2023/06/02 01:27:25;;;;;;;8.02;4.90;;;;;;;18.11;60.18;99350.00;4286854;33;20559;-83
2023/06/02 01:29:52;;;;;;;7.03;5.10;;;;;;;18.13;60.18;99349.91;4286876;33;20098;-82
2023/06/02 01:32:20;;;;;;;11.45;4.93;;;;;;;18.28;60.19;99351.47;4286734;33;20092;-83
2023/06/02 01:35:05;;;;;;;7.20;5.15;;;;;;;17.88;60.16;99351.59;4275001;33;20132;-84
2023/06/02 01:37:32;;;;;;;13.95;5.05;;;;;;;17.83;60.16;99352.84;4269046;33;20123;-84
2023/06/02 01:39:57;;;;;;;8.68;5.05;;;;;;;17.73;60.16;99353.47;4274614;33;20093;-84
2023/06/02 01:42:23;;;;;;;9.43;5.82;;;;;;;17.86;60.17;99358.75;4274646;33;20173;-83
2023/06/02 01:44:48;;;;;;;9.73;4.55;;;;;;;17.94;60.17;99345.91;4274650;33;20108;-83
2023/06/02 01:47:14;;;;;;;8.23;5.22;;;;;;;17.70;60.16;99352.84;4274827;33;20484;-84
2023/06/02 01:49:39;;;;;;;10.75;5.47;;;;;;;17.54;60.14;99349.53;4274577;33;20148;-84
2023/06/02 01:52:05;;;;;;;7.25;4.93;;;;;;;17.54;60.15;99353.00;4275601;33;20152;-84
2023/06/02 01:54:30;;;;;;;7.30;4.82;;;;;;;17.52;60.14;99352.28;4276783;33;20132;-84
2023/06/02 01:56:56;;;;;;;6.03;4.37;;;;;;;17.64;60.15;99354.06;4288811;33;20141;-84
2023/06/02 01:59:22;;;;;;;8.32;4.70;;;;;;;17.64;60.16;99358.47;4276397;33;20108;-84
2023/06/02 02:01:47;;;;;;;9.32;4.65;;;;;;;17.58;60.15;99351.84;4288695;33;20153;-84
2023/06/02 02:04:14;;;;;;;10.13;5.45;;;;;;;17.46;60.15;99356.13;4289889;33;20447;-83
2023/06/02 02:06:41;;;;;;;10.23;5.50;;;;;;;17.49;60.15;99349.81;4288730;33;20109;-83
2023/06/02 02:09:07;;;;;;;7.85;5.10;;;;;;;17.44;60.14;99351.91;4276784;33;20113;-84
2023/06/02 02:11:33;;;;;;;11.48;5.25;;;;;;;17.60;60.15;99357.00;4290021;33;20165;-84
2023/06/02 02:13:58;;;;;;;7.78;4.70;;;;;;;17.66;60.16;99346.06;4288339;33;20104;-83
2023/06/02 02:16:23;;;;;;;7.60;4.97;;;;;;;17.49;60.14;99360.34;4288216;33;20138;-83
2023/06/02 02:18:52;;;;;;;7.28;4.55;;;;;;;17.54;60.14;99346.91;4288198;33;20181;-83
2023/06/02 02:21:18;;;;;;;8.23;4.95;;;;;;;17.38;60.13;99347.06;4288524;33;20100;-83
2023/06/02 02:23:43;;;;;;;6.30;4.90;;;;;;;17.35;60.13;99336.75;4288464;33;20096;-83
2023/06/02 02:26:09;;;;;;;7.45;4.90;;;;;;;17.28;60.13;99332.84;4288955;33;33294;-83
2023/06/02 02:28:35;;;;;;;7.10;4.95;;;;;;;17.26;60.13;99339.97;4276606;33;20116;-83
2023/06/02 02:31:00;;;;;;;10.95;4.93;;;;;;;17.28;60.13;99346.00;4274145;33;20262;-83
2023/06/02 02:33:26;;;;;;;7.12;5.10;;;;;;;17.19;60.13;99344.81;4287295;33;20177;-83
2023/06/02 02:35:53;;;;;;;8.63;4.55;;;;;;;17.29;60.13;99343.28;4276428;33;20156;-83
2023/06/02 02:38:18;;;;;;;7.57;5.57;;;;;;;17.29;60.13;99345.06;4287978;33;20169;-83
2023/06/02 02:40:44;;;;;;;8.82;5.25;;;;;;;17.02;60.12;99351.16;4264648;33;20396;-83
2023/06/02 02:43:09;;;;;;;11.05;5.47;;;;;;;17.10;60.13;99343.63;4275730;33;21677;-83
2023/06/02 02:45:34;;;;;;;7.87;5.30;;;;;;;16.93;60.11;99346.50;4289635;33;20202;-83
2023/06/02 02:48:00;;;;;;;9.00;5.47;;;;;;;17.27;60.13;99339.03;4287349;33;34695;-83
2023/06/02 02:50:25;;;;;;;6.90;4.90;;;;;;;17.30;60.13;99344.13;4276539;33;20144;-83
2023/06/02 02:52:51;;;;;;;11.23;5.40;;;;;;;16.93;60.12;99343.88;4275715;33;20479;-83
2023/06/02 02:55:16;;;;;;;9.05;6.28;;;;;;;16.90;60.11;99343.22;4276342;33;20184;-83
2023/06/02 02:57:42;;;;;;;10.38;5.62;;;;;;;17.11;60.12;99340.06;4284909;33;20164;-83
2023/06/02 03:00:09;;;;;;;11.88;4.80;;;;;;;16.95;60.12;99336.72;4288105;33;20093;-83
2023/06/02 03:02:35;;;;;;;9.55;5.20;;;;;;;16.94;60.12;99340.28;4288126;33;20089;-83
2023/06/02 03:05:02;;;;;;;9.18;5.12;;;;;;;17.04;60.12;99335.31;4275908;33;20127;-84
2023/06/02 03:07:28;;;;;;;10.10;5.18;;;;;;;16.93;60.12;99332.50;4264625;33;20108;-83
2023/06/02 03:09:53;;;;;;;7.47;5.18;;;;;;;17.04;60.12;99332.69;4276369;33;20420;-83
2023/06/02 03:12:20;;;;;;;7.35;5.12;;;;;;;17.12;60.12;99335.63;4287484;33;31834;-81
2023/06/02 03:14:45;;;;;;;7.87;5.37;;;;;;;17.12;60.12;99333.84;4278849;33;20135;-84
2023/06/02 03:17:11;;;;;;;9.55;5.57;;;;;;;17.03;60.12;99336.22;4288096;33;20161;-84
2023/06/02 03:19:37;;;;;;;7.62;5.30;;;;;;;16.87;60.12;99331.13;4276172;33;20161;-83
2023/06/02 03:22:03;;;;;;;12.13;5.32;;;;;;;16.85;60.11;99328.59;4276402;33;20137;-83
2023/06/02 03:24:28;;;;;;;8.23;4.90;;;;;;;17.05;60.11;99327.31;4288031;33;20138;-83
2023/06/02 03:26:55;;;;;;;7.60;4.50;;;;;;;16.90;60.11;99330.94;4289489;33;20116;-83
2023/06/02 03:29:20;;;;;;;9.82;5.15;;;;;;;16.97;60.12;99329.56;4288251;33;20137;-83
2023/06/02 03:31:46;;;;;;;10.05;5.28;;;;;;;17.10;60.12;99334.91;4275984;33;20128;-82
2023/06/02 03:34:11;;;;;;;8.63;4.70;;;;;;;17.33;60.13;99334.22;4266425;33;20141;-82
2023/06/02 03:36:37;;;;;;;10.70;5.07;;;;;;;17.26;60.13;99334.72;4275979;33;20169;-82
2023/06/02 03:39:04;;;;;;;7.25;4.97;;;;;;;17.05;60.12;99339.63;4289134;33;20089;-83
2023/06/02 03:41:30;;;;;;;6.78;5.00;;;;;;;17.10;60.12;99334.91;4288121;33;20092;-82
2023/06/02 03:43:56;;;;;;;8.15;5.10;;;;;;;17.17;60.13;99338.81;4276205;33;20433;-83
2023/06/02 03:46:21;;;;;;;9.15;5.37;;;;;;;17.35;60.14;99336.75;4287272;33;30442;-82
2023/06/02 03:48:46;;;;;;;8.35;4.97;;;;;;;17.59;60.14;99339.53;4289336;33;20120;-81
2023/06/02 03:51:12;;;;;;;10.25;6.18;;;;;;;17.63;60.15;99341.84;4287676;33;20580;-83
2023/06/02 03:53:37;;;;;;;10.77;6.43;;;;;;;18.00;60.17;99339.38;4289364;33;20127;-82
2023/06/02 03:56:03;;;;;;;14.52;6.53;;;;;;;17.80;60.16;99332.84;4275285;33;32182;-83
2023/06/02 03:58:28;;;;;;;12.73;5.35;;;;;;;17.83;60.15;99332.63;4287809;33;20085;-84
2023/06/02 04:00:54;;;;;;;16.50;5.87;;;;;;;17.99;60.17;99335.91;4275380;33;20096;-83
2023/06/02 04:03:21;;;;;;;9.65;4.90;;;;;;;18.04;60.17;99336.44;4287977;33;20116;-84
2023/06/02 04:05:46;;;;;;;7.35;4.50;;;;;;;18.24;60.19;99334.22;4287584;33;20178;-83
2023/06/02 04:08:14;;;;;;;14.23;4.82;;;;;;;18.56;60.20;99331.91;4275789;33;20153;-82
2023/06/02 04:10:40;;;;;;;9.55;4.90;;;;;;;18.59;60.20;99329.91;4287806;33;20458;-82
2023/06/02 04:13:06;;;;;;;10.05;4.07;;;;;;;18.79;60.21;99325.88;4287861;33;20132;-83
2023/06/02 04:15:31;;;;;;;7.12;4.90;;;;;;;18.84;60.21;99325.53;4275184;33;20440;-83
2023/06/02 04:17:57;;;;;;;10.93;4.65;;;;;;;19.08;60.23;99323.72;4287607;33;20133;-83
2023/06/02 04:20:22;;;;;;;8.82;4.60;;;;;;;19.18;60.23;99323.91;4275813;33;20152;-83
2023/06/02 04:22:48;;;;;;;11.32;5.07;;;;;;;19.37;60.24;99320.72;4287701;33;20137;-83
2023/06/02 04:25:13;;;;;;;13.10;4.82;;;;;;;19.47;60.25;99325.22;4287269;33;20124;-83
2023/06/02 04:27:39;;;;;;;11.80;5.03;;;;;;;19.75;60.26;99321.34;4285106;33;20092;-82
2023/06/02 04:30:05;;;;;;;6.90;4.25;;;;;;;19.82;60.26;99314.63;4285453;33;20178;-82
2023/06/02 04:32:30;;;;;;;7.07;4.80;;;;;;;20.09;60.28;99321.38;4284902;33;20355;-83
2023/06/02 04:34:56;;;;;;;8.93;4.85;;;;;;;20.13;60.28;99320.19;4273072;33;20137;-82
2023/06/02 04:37:21;;;;;;;7.15;4.85;;;;;;;20.24;60.29;99317.53;4283937;33;35786;-83
2023/06/02 04:39:50;;;;;;;7.18;4.62;;;;;;;20.40;60.30;99315.41;4284471;33;20183;-83
2023/06/02 04:42:18;;;;;;;6.72;4.65;;;;;;;20.48;60.30;99317.44;4284773;33;20136;-82
2023/06/02 04:44:48;;;;;;;7.15;4.82;;;;;;;20.75;60.31;99309.91;4284761;33;20584;-82
2023/06/02 04:47:13;;;;;;;;;;;;;;;20.86;60.32;99310.88;4285284;33;20697;-83
2023/06/02 04:49:39;;;;;;;7.00;4.30;;;;;;;20.91;60.32;99319.25;4284509;33;22867;-82
2023/06/02 04:52:07;;;;;;;8.95;4.80;;;;;;;20.96;60.32;99314.44;4287060;33;20141;-83
2023/06/02 04:54:33;;;;;;;10.13;4.40;;;;;;;21.07;60.32;99314.41;4275256;33;20228;-82
2023/06/02 04:56:59;;;;;;;7.70;3.97;;;;;;;21.31;60.34;99316.88;4287042;33;20089;-83
2023/06/02 04:59:24;;;;;;;7.15;4.55;;;;;;;21.47;60.34;99305.81;4286956;33;20124;-83
2023/06/02 05:01:50;;;;;;;7.18;4.10;;;;;;;21.78;60.36;99309.38;4287119;33;20454;-83
2023/06/02 05:04:15;;;;;;;8.43;4.60;;;;;;;22.19;60.39;99304.00;4274532;33;21056;-83
2023/06/02 05:06:40;;;;;;;6.62;4.53;;;;;;;22.33;60.39;99310.78;4287097;33;20470;-83
2023/06/02 05:09:06;;;;;;;7.28;4.70;;;;;;;22.53;60.40;99314.34;4286750;33;20124;-83
2023/06/02 05:11:32;;;;;;;6.82;4.40;;;;;;;22.70;60.41;99305.69;4275303;33;20156;-82
2023/06/02 05:13:57;;;;;;;10.25;4.47;;;;;;;22.82;60.42;99298.50;4286830;33;20128;-82
2023/06/02 05:16:23;;;;;;;7.60;4.37;;;;;;;22.85;60.42;99301.72;4270488;33;20371;-82
2023/06/02 05:18:49;;;;;;;7.62;3.97;;;;;;;23.03;60.44;99299.22;4286612;33;20390;-82
2023/06/02 05:21:14;;;;;;;10.50;4.35;;;;;;;23.22;60.44;99306.34;4286654;33;20092;-81
2023/06/02 05:23:40;;;;;;;7.87;3.85;;;;;;;23.43;60.46;99306.19;4287378;33;20164;-82
2023/06/02 05:26:05;;;;;;;5.60;4.00;;;;;;;23.71;60.46;99305.34;4286517;33;20144;-81
2023/06/02 05:28:31;;;;;;;7.18;4.95;;;;;;;23.81;60.48;99300.81;4287919;33;20120;-80
2023/06/02 05:30:56;;;;;;;6.80;4.25;;;;;;;23.99;60.48;99295.59;4289496;33;20427;-82
2023/06/02 05:33:23;;;;;;;8.65;4.15;;;;;;;24.05;60.49;99296.84;4288038;33;20135;-81
2023/06/02 05:35:48;;;;;;;10.63;4.95;;;;;;;24.18;60.49;99303.50;4280114;33;20158;-81
2023/06/02 05:38:17;;;;;;;7.80;4.45;;;;;;;24.38;60.50;99301.63;4287176;33;32409;-81
2023/06/02 05:40:43;;;;;;;8.30;4.28;;;;;;;24.63;60.51;99299.25;4288460;33;20113;-80
2023/06/02 05:43:08;;;;;;;11.43;4.82;;;;;;;24.81;60.52;99294.78;4287792;33;20139;-81
2023/06/02 05:45:34;;;;;;;7.30;4.43;;;;;;;24.99;60.53;99290.34;4289444;33;20116;-80
2023/06/02 05:47:59;;;;;;;8.55;4.62;;;;;;;25.29;60.54;99286.44;4288380;33;20502;-80
2023/06/02 05:50:24;;;;;;;8.25;4.65;;;;;;;25.44;60.55;99289.38;4286038;33;20123;-81
2023/06/02 05:52:50;;;;;;;9.88;4.93;;;;;;;25.66;60.57;99294.22;4284485;33;20176;-81
2023/06/02 05:55:16;;;;;;;10.05;4.75;;;;;;;25.95;60.58;99290.44;4285925;33;20119;-80
2023/06/02 05:57:42;;;;;;;8.50;5.03;;;;;;;26.18;60.59;99288.88;4273960;33;20123;-81
2023/06/02 06:00:09;;;;;;;11.70;4.95;;;;;;;26.26;60.60;99288.94;4285729;33;20149;-81
2023/06/02 06:02:35;;;;;;;9.38;4.53;;;;;;;26.34;60.60;99290.81;4286156;33;20139;-81
2023/06/02 06:05:00;;;;;;;11.93;5.15;;;;;;;26.54;60.61;99288.72;4276039;33;20406;-80
2023/06/02 06:07:25;;;;;;;9.98;4.57;;;;;;;26.50;60.61;99290.03;4289717;33;20085;-81
2023/06/02 06:09:51;;;;;;;7.85;4.37;;;;;;;26.69;60.62;99294.25;4276117;33;20135;-82
2023/06/02 06:12:16;;;;;;;6.30;4.70;;;;;;;26.94;60.63;99282.63;4287672;33;27267;-81
2023/06/02 06:14:42;;;;;;;7.62;4.82;;;;;;;27.08;60.64;99278.50;4288022;33;23603;-82
2023/06/02 06:17:07;;;;;;;7.53;4.57;;;;;;;26.80;60.63;99285.94;4287250;33;33077;-82
2023/06/02 06:19:32;;;;;;;9.85;5.12;;;;;;;26.91;60.63;99285.63;4288349;33;20451;-81
2023/06/02 06:21:58;;;;;;;6.65;4.37;;;;;;;26.97;60.64;99289.47;4289321;33;20182;-82
2023/06/02 06:24:24;;;;;;;9.02;4.50;;;;;;;27.04;60.64;99288.69;4275342;33;39289;-82
2023/06/02 06:26:49;;;;;;;8.07;4.70;;;;;;;27.01;60.64;99291.69;4281621;33;20141;-82
2023/06/02 06:29:15;;;;;;;10.85;5.05;;;;;;;26.86;60.62;99295.97;4287965;33;20145;-82
2023/06/02 06:31:40;;;;;;;7.62;4.37;;;;;;;27.00;60.63;99297.22;4287759;33;20204;-82
2023/06/02 06:34:08;;;;;;;10.98;4.35;;;;;;;27.18;60.64;99297.88;4288262;33;20204;-81
2023/06/02 06:36:34;;;;;;;7.12;4.68;;;;;;;27.03;60.65;99296.88;4288513;33;20131;-82
2023/06/02 06:38:59;;;;;;;12.55;4.72;;;;;;;27.10;60.64;99304.06;4275714;33;20133;-82
2023/06/02 06:41:27;;;;;;;10.65;5.30;;;;;;;27.26;60.65;99299.72;4276298;33;20522;-82
2023/06/02 06:43:52;;;;;;;9.23;4.68;;;;;;;27.26;60.65;99299.72;4276210;33;20489;-81
2023/06/02 06:46:18;;;;;;;8.95;4.37;;;;;;;27.46;60.67;99306.41;4276441;33;20124;-82
2023/06/02 06:48:43;;;;;;;10.55;5.10;;;;;;;27.64;60.67;99303.56;4287558;33;26499;-82
2023/06/02 06:51:08;;;;;;;7.40;4.32;;;;;;;27.69;60.68;99310.09;4275398;33;33802;-82
2023/06/02 06:53:34;;;;;;;6.07;4.53;;;;;;;27.78;60.68;99306.41;4288804;33;27226;-82
2023/06/02 06:56:02;;;;;;;8.70;4.32;;;;;;;27.68;60.68;99308.44;4288036;33;20112;-82
2023/06/02 06:58:27;;;;;;;10.35;4.65;;;;;;;27.82;60.67;99312.25;4276286;33;20178;-81
2023/06/02 07:00:52;;;;;;;6.07;4.37;;;;;;;27.86;60.69;99302.88;4288159;33;20415;-81
2023/06/02 07:03:18;;;;;;;7.18;4.25;;;;;;;28.16;60.70;99303.97;4289301;33;20450;-82
2023/06/02 07:05:43;;;;;;;5.62;4.10;;;;;;;28.38;60.71;99313.09;4275644;33;20092;-81
2023/06/02 07:08:09;;;;;;;9.43;4.95;;;;;;;28.51;60.71;99301.84;4276019;33;20188;-82
2023/06/02 07:10:34;;;;;;;5.53;4.60;;;;;;;28.71;60.73;99311.12;4288154;33;20217;-81
2023/06/02 07:13:00;;;;;;;10.52;4.70;;;;;;;29.06;60.74;99300.87;4287269;33;35027;-82
2023/06/02 07:15:25;;;;;;;6.30;4.10;;;;;;;29.20;60.76;99303.62;4276063;33;20147;-79
2023/06/02 07:17:50;;;;;;;12.55;5.15;;;;;;;29.52;60.77;99299.87;4287446;33;27238;-81
2023/06/02 07:20:16;;;;;;;10.65;5.30;;;;;;;29.40;60.76;99300.47;4288136;33;20589;-81
2023/06/02 07:22:41;;;;;;;8.00;4.43;;;;;;;29.43;60.76;99300.09;4289071;33;22959;-81
2023/06/02 07:25:07;;;;;;;6.93;4.22;;;;;;;29.59;60.77;99300.81;4288106;33;20200;-81
2023/06/02 07:27:32;;;;;;;13.35;4.95;;;;;;;29.57;60.77;99305.50;4287907;33;20109;-80
2023/06/02 07:29:58;;;;;;;8.20;4.80;;;;;;;29.50;60.77;99296.53;4288135;33;20120;-80
2023/06/02 07:32:23;;;;;;;10.25;4.90;;;;;;;29.27;60.76;99295.69;4287784;33;20364;-80
2023/06/02 07:34:49;;;;;;;8.57;4.70;;;;;;;29.08;60.75;99306.87;4287128;33;32186;-81
2023/06/02 07:37:14;;;;;;;8.30;4.10;;;;;;;29.15;60.74;99302.50;4289044;33;20181;-81
2023/06/02 07:39:39;;;;;;;7.10;4.80;;;;;;;29.06;60.74;99304.38;4288675;33;20132;-81
2023/06/02 07:42:05;;;;;;;8.13;5.30;;;;;;;28.97;60.74;99305.47;4275706;33;20093;-82
2023/06/02 07:44:31;;;;;;;8.93;4.70;;;;;;;29.17;60.76;99301.31;4287698;33;20101;-82
2023/06/02 07:46:56;;;;;;;10.55;4.75;;;;;;;29.37;60.76;99298.16;4287787;33;20191;-81
2023/06/02 07:49:22;;;;;;;7.15;4.70;;;;;;;29.56;60.76;99300.31;4287993;33;20189;-80
2023/06/02 07:51:47;;;;;;;7.50;4.72;;;;;;;29.83;60.79;99301.59;4288117;33;35798;-81
2023/06/02 07:54:12;;;;;;;7.95;4.97;;;;;;;29.64;60.78;99298.41;4287851;33;20216;-81
2023/06/02 07:56:38;;;;;;;9.90;5.18;;;;;;;29.95;60.79;99303.62;4288080;33;37126;-80
2023/06/02 07:59:03;;;;;;;9.23;4.80;;;;;;;30.24;60.81;99297.44;4280667;33;22184;-81
2023/06/02 08:01:29;;;;;;;5.72;4.47;;;;;;;30.37;60.82;99298.66;4287286;33;20159;-81
2023/06/02 08:03:54;;;;;;;7.87;4.95;;;;;;;30.07;60.80;99308.59;4288728;33;20479;-81
2023/06/02 08:06:19;;;;;;;6.53;4.75;;;;;;;29.80;60.79;99308.13;4275527;33;20168;-81
2023/06/02 08:08:45;;;;;;;8.95;4.70;;;;;;;29.78;60.78;99299.44;4288442;33;30029;-81
2023/06/02 08:11:11;;;;;;;5.90;4.55;;;;;;;29.89;60.79;99303.53;4275590;33;20176;-82
2023/06/02 08:13:37;;;;;;;11.02;5.05;;;;;;;30.09;60.80;99295.81;4289022;33;20438;-81
2023/06/02 08:16:02;;;;;;;5.82;4.50;;;;;;;30.09;60.80;99295.81;4287398;33;20127;-81
2023/06/02 08:18:27;;;;;;;6.12;4.95;;;;;;;29.94;60.79;99304.66;4288405;33;20092;-82
2023/06/02 08:20:53;;;;;;;7.60;4.70;;;;;;;29.83;60.79;99294.38;4286974;33;20523;-81
2023/06/02 08:23:19;;;;;;;6.95;4.72;;;;;;;29.53;60.78;99295.34;4286755;33;34975;-81
2023/06/02 08:25:44;;;;;;;6.65;4.78;;;;;;;29.56;60.78;99295.78;4287064;33;20131;-80
2023/06/02 08:28:11;;;;;;;6.82;4.85;;;;;;;29.61;60.78;99297.97;4288702;33;20144;-82
2023/06/02 08:30:37;;;;;;;10.50;4.90;;;;;;;29.76;60.79;99304.16;4284935;33;20139;-81
2023/06/02 08:33:03;;;;;;;9.98;4.60;;;;;;;29.94;60.79;99290.41;4282191;33;20101;-81
2023/06/02 08:35:32;;;;;;;9.52;6.40;;;;;;;30.15;60.81;99301.25;4275090;33;20135;-81
2023/06/02 08:38:02;;;;;;;8.90;4.72;;;;;;;30.08;60.80;99294.97;4275832;33;20507;-80
2023/06/02 08:40:28;;;;;;;9.45;4.90;;;;;;;30.28;60.82;99297.91;4275660;33;20175;-81
2023/06/02 08:42:57;;;;;;;9.80;4.68;;;;;;;30.60;60.83;99288.62;4275486;33;20397;-81
2023/06/02 08:45:22;;;;;;;8.38;4.57;;;;;;;30.68;60.84;99290.38;4287618;33;20100;-81
2023/06/02 08:47:52;;;;;;;7.55;4.75;;;;;;;30.83;60.83;99288.50;4275060;33;20990;-81
2023/06/02 08:50:17;;;;;;;7.05;4.60;;;;;;;31.03;60.86;99278.78;4287304;33;20175;-81
2023/06/02 08:52:42;;;;;;;7.62;4.72;;;;;;;31.29;60.86;99280.91;4275374;33;20088;-81
2023/06/02 08:55:08;;;;;;;7.78;5.03;;;;;;;31.40;60.87;99271.47;4274740;33;27367;-82
2023/06/02 08:57:33;;;;;;;6.25;4.95;;;;;;;31.53;60.87;99271.59;4286611;33;20430;-81
2023/06/02 08:59:59;;;;;;;8.68;4.50;;;;;;;31.77;60.88;99269.50;4288046;33;20490;-81
2023/06/02 09:02:25;;;;;;;6.68;4.85;;;;;;;31.75;60.88;99269.72;4287310;33;20097;-82
2023/06/02 09:04:51;;;;;;;5.62;4.50;;;;;;;31.89;60.90;99266.06;4287064;33;20550;-81
2023/06/02 09:07:17;;;;;;;8.98;4.53;;;;;;;31.89;60.89;99257.97;4287019;33;20172;-81
2023/06/02 09:09:43;;;;;;;8.02;4.90;;;;;;;31.97;60.89;99252.47;4274919;33;20805;-81
2023/06/02 09:12:09;;;;;;;8.50;4.97;;;;;;;32.28;60.92;99253.87;4287209;33;20172;-82
2023/06/02 09:14:38;;;;;;;6.72;4.50;;;;;;;32.34;60.91;99250.38;4274581;33;20137;-82
2023/06/02 09:17:06;;;;;;;6.53;4.53;;;;;;;32.42;60.91;99234.03;4287071;33;20134;-81
2023/06/02 09:19:51;;;;;;;6.55;4.10;;;;;;;32.66;60.93;99235.34;4286809;33;20088;-81
2023/06/02 09:22:16;;;;;;;5.65;4.22;;;;;;;32.87;60.94;99228.97;4275135;33;20115;-82
2023/06/02 09:24:42;;;;;;;9.32;4.35;;;;;;;33.17;60.96;99229.44;4275038;33;20447;-82
2023/06/02 09:27:15;;;;;;;6.60;4.10;;;;;;;33.41;60.97;99233.41;4286835;33;20164;-82
2023/06/02 09:29:40;;;;;;;8.30;4.85;;;;;;;33.61;60.98;99227.97;4274803;33;20081;-82
2023/06/02 09:32:18;;;;;;;5.85;4.78;;;;;;;33.78;60.98;99227.28;4286581;33;20134;-82
2023/06/02 09:34:45;;;;;;;6.97;4.80;;;;;;;33.80;60.99;99229.78;4286863;33;20116;-82
2023/06/02 09:37:17;;;;;;;7.60;5.00;;;;;;;33.78;60.98;99237.28;4274805;33;20131;-83
2023/06/02 09:39:45;;;;;;;6.05;4.37;;;;;;;33.80;60.99;99240.59;4286997;33;20147;-82
2023/06/02 09:42:12;;;;;;;6.10;4.47;;;;;;;33.53;60.97;99235.22;4286963;33;20447;-82
2023/06/02 09:44:38;;;;;;;9.40;5.00;;;;;;;33.28;60.96;99232.31;4286872;33;20192;-82
2023/06/02 09:47:18;;;;;;;7.12;5.18;;;;;;;32.84;60.95;99216.72;4274707;33;20135;-81
2023/06/02 09:49:44;;;;;;;5.87;4.47;;;;;;;32.67;60.92;99218.97;4274818;33;20097;-82
2023/06/02 09:52:14;;;;;;;13.27;5.07;;;;;;;32.66;60.93;99229.97;4287881;33;20160;-81
2023/06/02 09:54:46;;;;;;;8.95;4.70;;;;;;;32.37;60.93;99212.25;4274828;33;20491;-82
2023/06/02 09:57:12;;;;;;;8.65;4.43;;;;;;;32.32;60.92;99212.03;4285966;33;20168;-81
2023/06/02 09:59:38;;;;;;;9.57;4.53;;;;;;;32.51;60.93;99219.34;4287562;33;20377;-83
2023/06/02 10:02:04;;;;;;;6.65;4.93;;;;;;;32.52;60.93;99233.66;4274530;33;20127;-82
2023/06/02 10:04:29;;;;;;;7.20;4.60;;;;;;;32.00;60.90;99243.97;4287588;33;20117;-82
2023/06/02 10:07:24;;;;;;;7.97;4.80;;;;;;;31.72;60.89;99256.66;4285382;33;39162;-82
2023/06/02 10:09:56;;;;;;;6.50;4.57;;;;;;;31.18;60.87;99251.84;4279870;33;20092;-82
2023/06/02 10:12:39;;;;;;;6.45;4.57;;;;;;;30.98;60.85;99237.34;4287770;33;20088;-85
2023/06/02 10:15:32;;;;;;;8.70;4.35;;;;;;;30.91;60.86;99247.22;4289442;33;20128;-81
2023/06/02 10:18:17;;;;;;;7.60;4.18;;;;;;;30.42;60.84;99246.03;4288120;33;20115;-81
2023/06/02 10:21:07;;;;;;;12.98;4.78;;;;;;;29.99;60.81;99249.59;4263766;33;20088;-81
2023/06/02 10:24:04;;;;;;;13.18;4.78;;;;;;;29.76;60.79;99268.44;4280159;33;20080;-82
2023/06/02 10:26:57;;;;;;;13.77;5.20;;;;;;;29.23;60.76;99276.47;4284363;33;20184;-82
2023/06/02 10:29:25;;;;;;;15.60;4.87;;;;;;;28.82;60.75;99285.75;4288143;33;20466;-82
2023/06/02 10:31:51;;;;;;;8.13;4.75;;;;;;;27.72;60.71;99288.38;4276763;33;20105;-83
2023/06/02 10:34:38;;;;;;;9.07;5.03;;;;;;;27.09;60.66;99273.00;4276118;33;20341;-83
2023/06/02 10:37:03;;;;;;;9.63;4.87;;;;;;;26.83;60.65;99259.75;4288151;33;20176;-81
2023/06/02 10:39:41;;;;;;;8.73;5.13;;;;;;;26.74;60.64;99262.59;4289227;33;20148;-81
2023/06/02 10:42:12;;;;;;;9.73;4.32;;;;;;;27.04;60.66;99253.97;4289659;33;20127;-82
2023/06/02 10:44:38;;;;;;;7.85;4.37;;;;;;;27.33;60.67;99256.13;4288468;33;20108;-82
2023/06/02 10:47:32;;;;;;;9.48;4.05;;;;;;;27.69;60.69;99240.59;4276147;33;20155;-84
2023/06/02 10:50:06;;;;;;;8.35;4.18;;;;;;;28.07;60.71;99232.75;4275091;33;20139;-83
2023/06/02 10:52:33;;;;;;;11.27;4.75;;;;;;;28.39;60.72;99238.00;4275978;33;20092;-82
2023/06/02 10:55:07;;;;;;;9.95;4.60;;;;;;;28.58;60.73;99241.22;4289541;33;20088;-82
2023/06/02 10:57:51;;;;;;;9.43;5.62;;;;;;;28.64;60.74;99246.72;4289288;33;20168;-80
2023/06/02 11:00:29;;;;;;;10.18;4.10;;;;;;;28.93;60.76;99242.53;4289407;33;20156;-80
2023/06/02 11:02:55;;;;;;;7.95;4.80;;;;;;;28.86;60.75;99239.72;4289290;33;20115;-81
2023/06/02 11:05:23;;;;;;;8.18;4.47;;;;;;;28.79;60.74;99249.47;4276125;33;20077;-81
2023/06/02 11:08:11;;;;;;;8.55;4.97;;;;;;;28.10;60.71;99254.63;4287829;33;20131;-81
2023/06/02 11:10:54;;;;;;;12.45;4.72;;;;;;;27.35;60.68;99258.62;4288079;33;20100;-82
2023/06/02 11:13:20;;;;;;;21.77;5.47;;;;;;;27.17;60.66;99261.47;4280042;33;20104;-81
2023/06/02 11:15:58;;;;;;;15.23;5.68;;;;;;;26.99;60.66;99276.81;4287411;33;20490;-80
2023/06/02 11:18:25;;;;;;;15.15;6.30;;;;;;;26.96;60.66;99288.62;4288050;33;20092;-82
2023/06/02 11:20:52;;;;;;;13.62;6.25;;;;;;;26.69;60.64;99280.91;4287806;33;20105;-82
2023/06/02 11:23:17;;;;;;;10.52;5.75;;;;;;;26.13;60.62;99307.19;4287624;33;20477;-81
2023/06/02 11:25:46;;;;;;;8.15;5.22;;;;;;;25.87;60.60;99303.72;4286929;33;20156;-81
2023/06/02 11:28:17;;;;;;;7.35;5.60;;;;;;;25.69;60.59;99296.59;4275979;33;20165;-80
2023/06/02 11:30:42;;;;;;;13.55;5.97;;;;;;;25.49;60.58;99321.75;4276171;33;20105;-82
2023/06/02 11:33:08;;;;;;;9.13;5.68;;;;;;;24.91;60.55;99338.16;4287256;33;32678;-81